Youngsville, Louisiana
Current Conditions -  °F | °C
As of 7:53 PM on Friday 24 Oct 2014 (Local Time) from KLFT Reporting Station
Clear Clear  
Wind Chill: 64°   Ceiling: Unl
Heat Index: 64°   Visibility: 10mi
Dew Point: 51°   Wind: 0mph
Humidity: 63%   Direction: NA
Pressure: 30.1"   Gusts: NA
Location:  30.1°N, 91.99°W
Report Text: KLFT 250053Z 00000KT 10SM CLR 18/11 A3010 RMK AO2 SLP192 T01780106
Loading
Personal Weather Stations






























Interactive Weather Map
Tropical Storm Tracking
New forecast layout! Learn more

10-Day Weather Forecast

Advertisements
Track Severe Weather on mobile